地図

経路データ

SID SEASON NUMBER BASIN SUBBASIN NAME ISO_TIME NATURE LAT LON WMO_WIND WMO_PRES WMO_AGENCY TRACK_TYPE DIST2LAND LANDFALL IFLAG USA_AGENCY USA_ATCF_ID USA_LAT USA_LON USA_RECORD USA_STATUS USA_WIND USA_PRES USA_SSHS USA_R34_NE USA_R34_SE USA_R34_SW USA_R34_NW USA_R50_NE USA_R50_SE USA_R50_SW USA_R50_NW USA_R64_NE USA_R64_SE USA_R64_SW USA_R64_NW USA_POCI USA_ROCI USA_RMW USA_EYE TOKYO_LAT TOKYO_LON TOKYO_GRADE TOKYO_WIND TOKYO_PRES TOKYO_R50_DIR TOKYO_R50_LONG TOKYO_R50_SHORT TOKYO_R30_DIR TOKYO_R30_LONG TOKYO_R30_SHORT TOKYO_LAND CMA_LAT CMA_LON CMA_CAT CMA_WIND CMA_PRES HKO_LAT HKO_LON HKO_CAT HKO_WIND HKO_PRES NEWDELHI_LAT NEWDELHI_LON NEWDELHI_GRADE NEWDELHI_WIND NEWDELHI_PRES NEWDELHI_CI NEWDELHI_DP NEWDELHI_POCI REUNION_LAT REUNION_LON REUNION_TYPE REUNION_WIND REUNION_PRES REUNION_TNUM REUNION_CI REUNION_RMW REUNION_R34_NE REUNION_R34_SE REUNION_R34_SW REUNION_R34_NW REUNION_R50_NE REUNION_R50_SE REUNION_R50_SW REUNION_R50_NW REUNION_R64_NE REUNION_R64_SE REUNION_R64_SW REUNION_R64_NW BOM_LAT BOM_LON BOM_TYPE BOM_WIND BOM_PRES BOM_TNUM BOM_CI BOM_RMW BOM_R34_NE BOM_R34_SE BOM_R34_SW BOM_R34_NW BOM_R50_NE BOM_R50_SE BOM_R50_SW BOM_R50_NW BOM_R64_NE BOM_R64_SE BOM_R64_SW BOM_R64_NW BOM_ROCI BOM_POCI BOM_EYE BOM_POS_METHOD BOM_PRES_METHOD NADI_LAT NADI_LON NADI_CAT NADI_WIND NADI_PRES WELLINGTON_LAT WELLINGTON_LON WELLINGTON_WIND WELLINGTON_PRES DS824_LAT DS824_LON DS824_STAGE DS824_WIND DS824_PRES TD9636_LAT TD9636_LON TD9636_STAGE TD9636_WIND TD9636_PRES TD9635_LAT TD9635_LON TD9635_WIND TD9635_PRES TD9635_ROCI NEUMANN_LAT NEUMANN_LON NEUMANN_CLASS NEUMANN_WIND NEUMANN_PRES MLC_LAT MLC_LON MLC_CLASS MLC_WIND MLC_PRES USA_GUST BOM_GUST BOM_GUST_PER REUNION_GUST REUNION_GUST_PER USA_SEAHGT USA_SEARAD_NE USA_SEARAD_SE USA_SEARAD_SW USA_SEARAD_NW STORM_SPEED STORM_DIR
1933185N08135 1933 23 WP MM NOT_NAMED 1933-07-03 22:00:00 NR 8.20000 135.300 main 960 952 __________O___ -1 8.20000 135.300 7 20 352
1933185N08135 1933 23 WP MM NOT_NAMED 1933-07-04 00:00:00 NR 8.86370 135.202 main 956 950 __________P___ -1 8.86370 135.202 7 20 351
1933185N08135 1933 23 WP MM NOT_NAMED 1933-07-04 03:00:00 NR 9.84804 135.048 main 953 956 __________P___ -1 9.84804 135.048 7 20 351
1933185N08135 1933 23 WP MM NOT_NAMED 1933-07-04 06:00:00 NR 10.8030 134.876 main 969 962 __________P___ -1 10.8030 134.876 7 19 349
1933185N08135 1933 23 WP MM NOT_NAMED 1933-07-04 09:00:00 NR 11.7108 134.675 main 971 964 __________P___ -1 11.7108 134.675 7 19 347
1933185N08135 1933 23 WP MM NOT_NAMED 1933-07-04 10:00:00 NR 12.0000 134.600 main 966 953 __________O___ -1 12.0000 134.600 7 18 345
1933185N08135 1933 23 WP MM NOT_NAMED 1933-07-04 12:00:00 NR 12.5549 134.436 main 953 943 __________P___ -1 12.5549 134.436 7 17 342
1933185N08135 1933 23 WP MM NOT_NAMED 1933-07-04 15:00:00 NR 13.3250 134.152 main 949 921 __________P___ -1 13.3250 134.152 7 16 338
1933185N08135 1933 23 WP MM NOT_NAMED 1933-07-04 18:00:00 NR 14.0151 133.821 main 921 896 __________P___ -1 14.0151 133.821 7 15 332
1933185N08135 1933 23 WP MM NOT_NAMED 1933-07-04 21:00:00 NR 14.6190 133.439 main 896 889 __________P___ -1 14.6190 133.439 7 14 327
1933185N08135 1933 23 WP MM NOT_NAMED 1933-07-04 22:00:00 NR 14.8000 133.300 main 892 873 __________O___ -1 14.8000 133.300 7 13 323
1933185N08135 1933 23 WP MM NOT_NAMED 1933-07-05 00:00:00 NR 15.1532 133.025 main 877 851 __________P___ -1 15.1532 133.025 7 13 319
1933185N08135 1933 23 WP MM NOT_NAMED 1933-07-05 03:00:00 NR 15.6078 132.568 main 855 823 __________P___ -1 15.6078 132.568 7 13 312
1933185N08135 1933 23 WP MM NOT_NAMED 1933-07-05 06:00:00 NR 15.9863 132.059 main 829 793 __________P___ -1 15.9863 132.059 7 12 304
1933185N08135 1933 23 WP MM NOT_NAMED 1933-07-05 09:00:00 NR 16.3046 131.499 main 793 782 __________P___ -1 16.3046 131.499 7 13 300
1933185N08135 1933 23 WP MM NOT_NAMED 1933-07-05 10:00:00 NR 16.4000 131.300 main 782 760 __________O___ -1 16.4000 131.300 7 13 295
1933185N08135 1933 23 WP MM NOT_NAMED 1933-07-05 12:00:00 NR 16.5780 130.886 main 760 701 __________P___ -1 16.5780 130.886 7 13 292
1933185N08135 1933 23 WP MM NOT_NAMED 1933-07-05 15:00:00 NR 16.8181 130.230 main 701 647 __________P___ -1 16.8181 130.230 7 14 290
1933185N08135 1933 23 WP MM NOT_NAMED 1933-07-05 18:00:00 NR 17.0339 129.543 main 647 598 __________P___ -1 17.0339 129.543 7 14 287
1933185N08135 1933 23 WP MM NOT_NAMED 1933-07-05 21:00:00 NR 17.2348 128.837 main 598 589 __________P___ -1 17.2348 128.837 7 14 286
1933185N08135 1933 23 WP MM NOT_NAMED 1933-07-05 22:00:00 NR 17.3000 128.600 main 589 __________O___ -1 17.3000 128.600 7 14 286

デジタル台風データ・検索

IBTrACS Databaseについて

本データベースは、米国NOAAが公開する1842年以降の世界の熱帯低気圧のベストトラックデータアーカイブInternational Best Track Archive for Climate Stewardship (IBTrACS)を、ウェブで閲覧しやすい形式に変換したものです。

最終更新日:2021-10-19